Time;durP1;ratioP1;P1;durP2;ratioP2;P2;SDS_P1;SDS_P2;PMS_P1;PMS_P2;Temp;Humidity;BMP_temperature;BMP_pressure;BME280_temperature;BME280_humidity;BME280_pressure;Samples;Min_cycle;Max_cycle;Signal;HPM_P1;HPM_P2
2023/08/23 00:00:43;;;;;;;;;;;;;;;18.25;71.51;100417.66;4963071;28;2043;-87
2023/08/23 00:03:36;;;;;;;;;;;;;;;18.25;71.75;100414.13;4958252;28;2101;-87
2023/08/23 00:06:28;;;;;;;;;;;;;;;18.24;71.67;100412.50;4963179;28;2260;-86
2023/08/23 00:09:19;;;;;;;;;;;;;;;18.24;71.78;100412.50;4975170;28;1535;-85
2023/08/23 00:12:11;;;;;;;;;;;;;;;18.23;71.45;100414.38;4965530;28;1477;-86
2023/08/23 00:15:03;;;;;;;;;;;;;;;18.23;71.67;100419.00;4968669;28;1774;-86
2023/08/23 00:17:55;;;;;;;;;;;;;;;18.21;71.61;100407.59;4965627;28;1770;-87
2023/08/23 00:20:47;;;;;;;;;;;;;;;18.22;71.55;100407.28;4961604;28;2258;-84
2023/08/23 00:23:39;;;;;;;;;;;;;;;18.22;71.73;100412.75;4967430;28;2258;-85
2023/08/23 00:26:31;;;;;;;;;;;;;;;18.19;71.52;100399.66;4961860;28;2519;-86
2023/08/23 00:29:23;;;;;;;;;;;;;;;18.19;71.59;100409.75;4960674;28;2256;-86
2023/08/23 00:32:15;;;;;;;;;;;;;;;18.19;71.46;100404.31;4963214;28;2322;-85
2023/08/23 00:35:07;;;;;;;;;;;;;;;18.18;71.48;100406.22;4956528;28;2221;-86
2023/08/23 00:37:59;;;;;;;;;;;;;;;18.18;71.34;100406.22;4958676;28;2169;-88
2023/08/23 00:40:51;;;;;;;;;;;;;;;18.16;71.49;100401.03;4962366;28;2205;-85
2023/08/23 00:43:43;;;;;;;;;;;;;;;18.16;71.38;100395.59;4961925;28;2138;-85
2023/08/23 00:46:35;;;;;;;;;;;;;;;18.19;71.54;100396.13;4966190;28;2267;-85
2023/08/23 00:49:33;;;;;;;;;;;;;;;18.17;71.17;100399.94;4968461;28;1459;-85
2023/08/23 00:52:24;;;;;;;;;;;;;;;18.16;71.15;100409.22;4964988;28;969;-86
2023/08/23 00:55:16;;;;;;;;;;;;;;;18.15;71.57;100406.78;4961953;28;1932;-88
2023/08/23 00:58:08;;;;;;;;;;;;;;;18.15;71.22;100407.59;4971858;28;1637;-87
2023/08/23 01:01:00;;;;;;;;;;;;;;;18.13;71.19;100401.59;4969986;28;1458;-86
2023/08/23 01:03:52;;;;;;;;;;;;;;;18.14;71.12;100402.38;4971415;28;1772;-85
2023/08/23 01:06:46;;;;;;;;;;;;;;;18.13;71.28;100395.31;4972928;28;1952;-86
2023/08/23 01:09:37;;;;;;;;;;;;;;;18.13;71.10;100401.59;4961058;28;2154;-86
2023/08/23 01:12:28;;;;;;;;;;;;;;;18.13;71.25;100398.03;4968032;28;2363;-86
2023/08/23 01:15:20;;;;;;;;;;;;;;;18.12;71.24;100394.50;4963407;28;2412;-85
2023/08/23 01:18:12;;;;;;;;;;;;;;;18.11;71.22;100398.31;4967302;28;2770;-87
2023/08/23 01:21:04;;;;;;;;;;;;;;;18.11;71.32;100389.31;4966258;28;2240;-85
2023/08/23 01:23:56;;;;;;;;;;;;;;;18.10;70.84;100385.78;4947309;28;2262;-84
2023/08/23 01:26:48;;;;;;;;;;;;;;;18.10;71.31;100385.78;4947443;28;2697;-85
2023/08/23 01:29:40;;;;;;;;;;;;;;;18.09;71.06;100392.31;4944841;28;2274;-84
2023/08/23 01:32:32;;;;;;;;;;;;;;;18.08;71.01;100393.41;4947032;28;2682;-85
2023/08/23 01:35:24;;;;;;;;;;;;;;;18.08;71.33;100395.31;4948902;28;2333;-86
2023/08/23 01:38:16;;;;;;;;;;;;;;;18.08;70.88;100393.41;4945335;28;2304;-86
2023/08/23 01:41:08;;;;;;;;;;;;;;;18.08;70.76;100398.84;4946405;28;2250;-84
2023/08/23 01:44:00;;;;;;;;;;;;;;;18.07;70.77;100394.50;4947270;28;2234;-86
2023/08/23 01:46:52;;;;;;;;;;;;;;;18.08;71.06;100392.59;4953592;28;1903;-87
2023/08/23 01:49:44;;;;;;;;;;;;;;;18.07;71.25;100393.69;4945200;28;1818;-85
2023/08/23 01:52:36;;;;;;;;;;;;;;;18.05;70.90;100393.13;4954707;29;1519;-85
2023/08/23 01:55:28;;;;;;;;;;;;;;;18.06;71.02;100392.88;4948945;28;1987;-86
2023/08/23 01:58:20;;;;;;;;;;;;;;;18.04;70.75;100395.06;4952876;29;1483;-85
2023/08/23 02:01:12;;;;;;;;;;;;;;;18.04;70.86;100389.59;4950961;29;1550;-85
2023/08/23 02:04:04;;;;;;;;;;;;;;;18.04;70.94;100386.06;4948801;29;2065;-85
2023/08/23 02:06:56;;;;;;;;;;;;;;;18.03;71.08;100390.69;4952697;29;1911;-85
2023/08/23 02:09:48;;;;;;;;;;;;;;;18.04;70.94;100396.97;4953822;29;1585;-85
2023/08/23 02:12:40;;;;;;;;;;;;;;;18.03;70.96;100392.59;4957675;28;1841;-86
2023/08/23 02:15:32;;;;;;;;;;;;;;;18.03;70.71;100396.16;4953036;28;2250;-86
2023/08/23 02:18:24;;;;;;;;;;;;;;;18.02;70.83;100393.69;4946848;28;2207;-84
2023/08/23 02:21:16;;;;;;;;;;;;;;;18.02;70.65;100399.13;4952528;28;2184;-85
2023/08/23 02:24:08;;;;;;;;;;;;;;;18.00;70.66;100390.41;4966599;28;2105;-87
2023/08/23 02:27:00;;;;;;;;;;;;;;;18.02;70.84;100382.78;4961407;28;2194;-86
2023/08/23 02:29:52;;;;;;;;;;;;;;;18.02;70.68;100390.97;4966793;28;2173;-86
2023/08/23 02:32:44;;;;;;;;;;;;;;;18.00;70.54;100390.41;4964302;28;2098;-85
2023/08/23 02:35:36;;;;;;;;;;;;;;;17.97;70.64;100382.78;4964739;28;2697;-84
2023/08/23 02:38:28;;;;;;;;;;;;;;;17.97;70.79;100382.78;4963057;28;2498;-85
2023/08/23 02:41:20;;;;;;;;;;;;;;;17.96;70.73;100381.97;4962143;28;2305;-87
2023/08/23 02:44:12;;;;;;;;;;;;;;;17.97;70.58;100380.91;4965533;28;2229;-86
2023/08/23 02:47:04;;;;;;;;;;;;;;;17.96;70.90;100383.88;4960067;28;2015;-86
2023/08/23 02:49:56;;;;;;;;;;;;;;;17.98;70.40;100387.97;4963733;28;3084;-85
2023/08/23 02:52:48;;;;;;;;;;;;;;;17.99;70.51;100386.88;4968418;28;2190;-86
2023/08/23 02:55:40;;;;;;;;;;;;;;;17.99;70.64;100383.34;4966731;28;2181;-87
2023/08/23 02:58:32;;;;;;;;;;;;;;;17.95;70.47;100385.78;4966400;28;2249;-86
2023/08/23 03:01:24;;;;;;;;;;;;;;;17.94;70.49;100381.41;4969028;28;1730;-86
2023/08/23 03:04:16;;;;;;;;;;;;;;;17.93;70.51;100380.59;4975176;28;1834;-86
2023/08/23 03:07:08;;;;;;;;;;;;;;;17.94;70.50;100381.41;4972758;28;1971;-87
2023/08/23 03:10:00;;;;;;;;;;;;;;;17.93;70.47;100369.69;4972433;28;1929;-86
2023/08/23 03:12:52;;;;;;;;;;;;;;;17.92;70.74;100372.72;4964206;28;1205;-86
2023/08/23 03:15:44;;;;;;;;;;;;;;;17.96;70.57;100371.06;4969276;28;1563;-87
2023/08/23 03:18:36;;;;;;;;;;;;;;;17.95;70.36;100376.81;4978178;28;1610;-87
2023/08/23 03:21:28;;;;;;;;;;;;;;;17.96;70.54;100371.06;4974538;28;1807;-86
2023/08/23 03:24:20;;;;;;;;;;;;;;;17.96;70.36;100364.81;4974094;28;1543;-85
2023/08/23 03:27:12;;;;;;;;;;;;;;;17.94;70.22;100373.25;4976688;28;1914;-86
2023/08/23 03:30:04;;;;;;;;;;;;;;;17.91;70.32;100371.06;4966737;28;1945;-87
2023/08/23 03:32:56;;;;;;;;;;;;;;;17.92;70.47;100367.25;4976363;28;1550;-87
2023/08/23 03:35:47;;;;;;;;;;;;;;;17.92;70.35;100364.53;4970061;28;1509;-86
2023/08/23 03:38:39;;;;;;;;;;;;;;;17.93;70.29;100368.88;4968444;28;1817;-87
2023/08/23 03:41:31;;;;;;;;;;;;;;;17.92;70.18;100367.25;4968859;28;1611;-87
2023/08/23 03:44:23;;;;;;;;;;;;;;;17.93;70.08;100375.16;4971442;28;2216;-86
2023/08/23 03:47:15;;;;;;;;;;;;;;;17.94;70.24;100378.69;4963562;28;2336;-85
2023/08/23 03:50:07;;;;;;;;;;;;;;;17.94;70.03;100375.97;4964789;28;2522;-86
2023/08/23 03:52:59;;;;;;;;;;;;;;;17.99;69.89;100380.59;4966727;28;2217;-85
2023/08/23 03:55:51;;;;;;;;;;;;;;;17.94;69.92;100378.69;4962766;28;2166;-86
2023/08/23 03:58:43;;;;;;;;;;;;;;;17.95;69.96;100379.53;4968333;28;2436;-86
2023/08/23 04:01:35;;;;;;;;;;;;;;;17.98;69.83;100377.06;4970752;28;2076;-85
2023/08/23 04:04:27;;;;;;;;;;;;;;;17.94;69.90;100378.69;4961963;28;1477;-85
2023/08/23 04:07:19;;;;;;;;;;;;;;;17.93;70.02;100372.44;4968320;28;1906;-85
2023/08/23 04:10:11;;;;;;;;;;;;;;;17.97;69.77;100371.88;4974552;28;1415;-86
2023/08/23 04:13:03;;;;;;;;;;;;;;;17.99;69.78;100373.25;4973067;28;1511;-85
2023/08/23 04:15:55;;;;;;;;;;;;;;;17.96;70.02;100367.53;4973779;28;1862;-85
2023/08/23 04:18:47;;;;;;;;;;;;;;;17.96;70.14;100370.25;4966575;28;1538;-86
2023/08/23 04:21:39;;;;;;;;;;;;;;;17.96;69.62;100365.63;4964588;28;1523;-85
2023/08/23 04:24:31;;;;;;;;;;;;;;;17.94;69.84;100367.78;4971995;28;3332;-84
2023/08/23 04:27:23;;;;;;;;;;;;;;;17.98;69.74;100363.44;4992029;23;1883;-85
2023/08/23 04:30:14;;;;;;;;;;;;;;;17.98;69.74;100366.16;5002624;28;315;-85
2023/08/23 04:33:06;;;;;;;;;;;;;;;18.00;69.74;100358.56;5002525;28;300;-84
2023/08/23 04:36:00;;;;;;;;;;;;;;;17.97;69.70;100359.09;5002018;28;1644;-85
2023/08/23 04:38:51;;;;;;;;;;;;;;;17.98;69.46;100349.81;5002532;28;549;-86
2023/08/23 04:41:43;;;;;;;;;;;;;;;17.98;69.62;100357.19;5002464;28;507;-86
2023/08/23 04:44:35;;;;;;;;;;;;;;;17.96;69.78;100359.34;5002392;28;480;-85
2023/08/23 04:47:27;;;;;;;;;;;;;;;17.87;70.05;100364.53;5002344;28;1923;-86
2023/08/23 04:50:19;;;;;;;;;;;;;;;17.95;69.81;100357.72;5001626;28;303;-87
2023/08/23 04:53:11;;;;;;;;;;;;;;;17.93;69.74;100358.81;5002295;28;582;-86
2023/08/23 04:56:03;;;;;;;;;;;;;;;17.92;69.59;100359.91;5002287;28;463;-86
2023/08/23 04:58:55;;;;;;;;;;;;;;;17.92;69.54;100362.63;5002256;28;430;-86
2023/08/23 05:01:47;;;;;;;;;;;;;;;17.89;69.91;100365.09;4961370;28;2212;-86
2023/08/23 05:04:39;;;;;;;;;;;;;;;17.97;69.33;100363.72;4971774;28;2365;-85
2023/08/23 05:07:31;;;;;;;;;;;;;;;17.94;69.60;100365.06;4959847;28;2276;-87
2023/08/23 05:10:23;;;;;;;;;;;;;;;17.88;69.64;100363.44;4967289;28;2563;-84
2023/08/23 05:13:15;;;;;;;;;;;;;;;17.91;69.47;100366.44;4967412;28;1810;-86
2023/08/23 05:16:07;;;;;;;;;;;;;;;17.89;69.73;100370.53;4969762;23;1897;-86
2023/08/23 05:18:59;;;;;;;;;;;;;;;17.86;69.70;100373.81;4935794;23;1553;-86
2023/08/23 05:21:51;;;;;;;;;;;;;;;17.83;69.85;100374.34;4951308;28;2243;-86
2023/08/23 05:24:43;;;;;;;;;;;;;;;17.79;69.83;100371.34;4947237;28;2012;-86
2023/08/23 05:27:35;;;;;;;;;;;;;;;17.83;69.76;100379.81;4954151;28;1903;-86
2023/08/23 05:30:27;;;;;;;;;;;;;;;17.83;69.62;100374.34;4942979;29;2211;-85
2023/08/23 05:33:19;;;;;;;;;;;;;;;17.83;69.80;100377.88;4940161;28;1548;-85
2023/08/23 05:36:11;;;;;;;;;;;;;;;17.85;69.65;100366.69;4952548;28;1850;-86
2023/08/23 05:39:03;;;;;;;;;;;;;;;17.80;69.82;100364.81;4949991;28;1489;-85
2023/08/23 05:41:55;;;;;;;;;;;;;;;17.80;69.72;100372.97;4951685;28;1516;-85
2023/08/23 05:44:47;;;;;;;;;;;;;;;17.80;69.72;100364.00;4947274;28;2035;-87
2023/08/23 05:47:39;;;;;;;;;;;;;;;17.83;69.55;100369.72;4941673;29;1964;-86
2023/08/23 05:50:31;;;;;;;;;;;;;;;17.85;69.45;100375.72;4958220;28;1286;-86
2023/08/23 05:53:23;;;;;;;;;;;;;;;17.83;69.51;100375.16;4949874;28;2519;-85
2023/08/23 05:56:15;;;;;;;;;;;;;;;17.81;69.71;100379.25;4954355;28;1550;-86
2023/08/23 05:59:07;;;;;;;;;;;;;;;17.83;69.60;100364.28;4943477;28;2069;-86
2023/08/23 06:01:59;;;;;;;;;;;;;;;17.80;69.60;100377.63;4955242;28;1417;-85
2023/08/23 06:04:51;;;;;;;;;;;;;;;17.76;69.95;100368.31;4950886;29;1805;-85
2023/08/23 06:07:43;;;;;;;;;;;;;;;17.78;69.63;100371.63;4952870;28;1910;-86
2023/08/23 06:10:35;;;;;;;;;;;;;;;17.80;69.40;100375.72;4951732;28;2100;-86
2023/08/23 06:13:27;;;;;;;;;;;;;;;17.76;69.84;100368.31;4955613;28;2050;-86
2023/08/23 06:16:19;;;;;;;;;;;;;;;17.76;69.68;100369.13;4957178;28;2162;-85
2023/08/23 06:19:11;;;;;;;;;;;;;;;17.74;69.77;100368.59;4965412;28;1566;-85
2023/08/23 06:22:03;;;;;;;;;;;;;;;17.76;69.70;100360.94;4970411;28;1906;-86
2023/08/23 06:24:54;;;;;;;;;;;;;;;17.76;69.67;100354.69;4966604;28;1998;-86
2023/08/23 06:27:46;;;;;;;;;;;;;;;17.69;69.75;100357.69;4969986;28;2803;-86
2023/08/23 06:30:38;;;;;;;;;;;;;;;17.66;69.85;100358.25;4964067;28;2376;-86
2023/08/23 06:33:30;;;;;;;;;;;;;;;17.66;69.85;100353.59;4968711;28;2141;-86
2023/08/23 06:36:22;;;;;;;;;;;;;;;17.66;70.15;100347.34;4973532;28;2162;-84
2023/08/23 06:39:14;;;;;;;;;;;;;;;17.64;70.01;100349.50;4974073;28;1941;-85
2023/08/23 06:42:06;;;;;;;;;;;;;;;17.64;70.14;100349.50;4972382;28;1387;-87
2023/08/23 06:44:58;;;;;;;;;;;;;;;17.63;70.01;100353.34;4970219;28;1989;-88
2023/08/23 06:47:50;;;;;;;;;;;;;;;17.64;70.01;100360.41;4974648;28;1957;-87
2023/08/23 06:50:42;;;;;;;;;;;;;;;17.63;70.16;100373.22;4974881;28;1020;-85
2023/08/23 06:53:34;;;;;;;;;;;;;;;17.62;69.87;100374.31;4974043;28;2133;-85
2023/08/23 06:56:26;;;;;;;;;;;;;;;17.61;70.19;100375.38;4968306;28;1862;-87
2023/08/23 06:59:18;;;;;;;;;;;;;;;17.61;70.02;100377.28;4964112;28;1946;-84
2023/08/23 07:02:11;;;;;;;;;;;;;;;17.61;70.03;100359.03;4970221;28;1713;-85
2023/08/23 07:05:02;;;;;;;;;;;;;;;17.62;70.20;100359.88;4976215;28;3644;-85
2023/08/23 07:07:54;;;;;;;;;;;;;;;17.62;70.03;100363.41;4971563;28;2765;-85
2023/08/23 07:10:46;;;;;;;;;;;;;;;17.62;70.04;100362.59;4968311;28;2313;-88
2023/08/23 07:13:39;;;;;;;;;;;;;;;17.61;69.97;100369.94;4971529;28;1387;-87
2023/08/23 07:16:30;;;;;;;;;;;;;;;17.62;69.97;100362.59;4958298;28;1924;-87
2023/08/23 07:19:21;;;;;;;;;;;;;;;17.62;69.87;100360.69;4971787;28;2381;-87
2023/08/23 07:22:13;;;;;;;;;;;;;;;17.63;69.91;100358.78;4976825;28;2054;-85
2023/08/23 07:25:05;;;;;;;;;;;;;;;17.60;70.10;100360.13;4974464;28;1032;-87
2023/08/23 07:27:56;;;;;;;;;;;;;;;17.61;70.17;100361.75;4986847;28;1903;-87
2023/08/23 07:30:49;;;;;;;;;;;;;;;17.61;70.02;100359.03;4963128;28;2146;-87
2023/08/23 07:33:41;;;;;;;;;;;;;;;17.62;69.87;100357.97;4980538;28;2011;-89
2023/08/23 07:36:33;;;;;;;;;;;;;;;17.61;70.12;100359.03;4974924;28;1930;-86
2023/08/23 07:39:27;;;;;;;;;;;;;;;17.61;70.03;100355.50;4972781;28;1044;-87
2023/08/23 07:42:18;;;;;;;;;;;;;;;17.62;69.91;100354.44;4974339;28;2003;-87
2023/08/23 07:45:10;;;;;;;;;;;;;;;17.62;70.14;100347.06;4964696;28;1885;-88
2023/08/23 07:48:02;;;;;;;;;;;;;;;17.63;69.92;100353.34;4974582;28;2096;-88
2023/08/23 07:50:55;;;;;;;;;;;;;;;17.61;70.01;100353.59;4974807;28;1490;-87
2023/08/23 07:53:48;;;;;;;;;;;;;;;17.62;70.14;100357.97;4975275;28;1893;-87
2023/08/23 07:56:39;;;;;;;;;;;;;;;17.64;70.05;100357.69;4976124;28;778;-88
2023/08/23 07:59:30;;;;;;;;;;;;;;;17.63;70.06;100362.31;4963319;28;2282;-88
2023/08/23 08:02:23;;;;;;;;;;;;;;;17.64;69.86;100368.56;4980137;28;2149;-89
2023/08/23 08:05:14;;;;;;;;;;;;;;;17.64;69.97;100363.94;4972823;28;1260;-87
2023/08/23 08:08:06;;;;;;;;;;;;;;;17.64;70.00;100368.56;4966506;28;2020;-87
2023/08/23 08:10:58;;;;;;;;;;;;;;;17.64;69.82;100363.13;4965569;28;1915;-88
2023/08/23 08:13:50;;;;;;;;;;;;;;;17.64;69.95;100374.03;4978806;28;2060;-87
2023/08/23 08:16:42;;;;;;;;;;;;;;;17.64;70.14;100369.38;4974155;28;1889;-85
2023/08/23 08:19:34;;;;;;;;;;;;;;;17.64;69.81;100366.66;4971665;28;2062;-86
2023/08/23 08:22:26;;;;;;;;;;;;;;;17.65;70.00;100375.69;4981633;28;2142;-87
2023/08/23 08:25:18;;;;;;;;;;;;;;;17.64;69.96;100374.03;4965323;28;1849;-89
2023/08/23 08:28:10;;;;;;;;;;;;;;;17.65;70.08;100367.50;4972897;28;1966;-87
2023/08/23 08:31:02;;;;;;;;;;;;;;;17.65;69.92;100367.50;4966991;28;1877;-90
2023/08/23 08:33:53;;;;;;;;;;;;;;;17.64;70.05;100354.97;4971961;28;2755;-87
2023/08/23 08:36:45;;;;;;;;;;;;;;;17.66;70.07;100360.97;4976231;28;2088;-88
2023/08/23 08:39:37;;;;;;;;;;;;;;;17.65;69.80;100360.16;4971047;28;2097;-85
2023/08/23 08:42:30;;;;;;;;;;;;;;;17.66;70.16;100367.22;4967709;28;1280;-87
2023/08/23 08:45:21;;;;;;;;;;;;;;;17.65;69.94;100360.16;4971612;28;1371;-89
2023/08/23 08:48:14;;;;;;;;;;;;;;;17.67;70.07;100362.59;4965787;28;2065;-87
2023/08/23 08:51:06;;;;;;;;;;;;;;;17.66;70.11;100364.50;4985998;28;1660;-88
2023/08/23 08:53:58;;;;;;;;;;;;;;;17.67;69.94;100357.13;4978447;28;2060;-89
2023/08/23 08:56:50;;;;;;;;;;;;;;;17.66;70.00;100356.31;4969843;28;1222;-87
2023/08/23 08:59:42;;;;;;;;;;;;;;;17.67;70.18;100362.59;4961334;28;1047;-90
2023/08/23 09:02:34;;;;;;;;;;;;;;;17.67;70.11;100357.94;4963263;28;2173;-86
2023/08/23 09:05:26;;;;;;;;;;;;;;;17.67;70.08;100357.94;4962852;28;2184;-90
2023/08/23 09:08:18;;;;;;;;;;;;;;;17.67;70.13;100357.94;4961329;28;2171;-85
2023/08/23 09:11:10;;;;;;;;;;;;;;;17.68;70.15;100356.88;4962383;28;2255;-94
2023/08/23 09:14:02;;;;;;;;;;;;;;;17.68;70.01;100365.06;4964549;28;2738;-92
2023/08/23 09:16:54;;;;;;;;;;;;;;;17.69;69.96;100363.13;4963056;28;2293;-84
2023/08/23 09:19:46;;;;;;;;;;;;;;;17.68;69.90;100359.59;4963452;28;2458;-85
2023/08/23 09:22:38;;;;;;;;;;;;;;;17.69;70.02;100360.41;4980626;23;2114;-83
2023/08/23 09:47:46;;;;;;;;;;;;;;;17.71;70.33;100352.81;4943201;28;5067;-83
2023/08/23 09:50:37;;;;;;;;;;;;;;;17.73;70.16;100347.88;4956115;28;1982;-83
2023/08/23 09:53:29;;;;;;;;;;;;;;;17.74;70.21;100351.44;4952482;28;4772;-83
2023/08/23 09:56:21;;;;;;;;;;;;;;;17.73;70.23;100349.78;4954493;28;1316;-84
2023/08/23 09:59:13;;;;;;;;;;;;;;;17.73;70.21;100345.16;4952389;29;2230;-82
2023/08/23 10:02:05;;;;;;;;;;;;;;;17.74;70.29;100354.97;4952353;28;2282;-83
2023/08/23 10:04:57;;;;;;;;;;;;;;;17.75;70.25;100350.34;4950348;28;4665;-81
2023/08/23 10:07:49;;;;;;;;;;;;;;;17.75;70.22;100347.63;4948042;28;2809;-82
2023/08/23 10:10:45;;;;;;;;;;;;;;;17.75;70.42;100348.44;4947382;28;2359;-83
2023/08/23 10:13:37;;;;;;;;;;;;;;;17.75;70.20;100353.06;4947266;28;2348;-82
2023/08/23 10:16:29;;;;;;;;;;;;;;;17.75;70.31;100353.88;4948503;28;2102;-84
2023/08/23 10:19:21;;;;;;;;;;;;;;;17.77;70.53;100348.19;4956639;28;1833;-84
2023/08/23 10:22:13;;;;;;;;;;;;;;;17.77;70.47;100346.25;4959599;28;1485;-82
2023/08/23 10:25:05;;;;;;;;;;;;;;;17.79;70.41;100346.00;4962976;28;1912;-84
2023/08/23 10:27:57;;;;;;;;;;;;;;;17.78;70.36;100341.66;4968909;28;1383;-81
2023/08/23 10:30:49;;;;;;;;;;;;;;;17.78;70.65;100347.09;4966006;28;2213;-81
2023/08/23 10:33:41;;;;;;;;;;;;;;;17.79;70.49;100343.28;4977212;28;1510;-81
2023/08/23 10:36:33;;;;;;;;;;;;;;;17.79;70.60;100340.56;4975206;28;1620;-79
2023/08/23 10:39:25;;;;;;;;;;;;;;;17.80;70.79;100336.75;4964701;28;1534;-86
2023/08/23 10:42:17;;;;;;;;;;;;;;;17.80;70.58;100334.03;4964974;28;2591;-83
2023/08/23 10:45:09;;;;;;;;;;;;;;;17.81;70.53;100341.13;4965230;28;2359;-78
2023/08/23 10:48:01;;;;;;;;;;;;;;;17.82;70.56;100329.13;4964107;28;2428;-83
2023/08/23 10:50:54;;;;;;;;;;;;;;;17.82;70.87;100321.75;4964808;28;2376;-82
2023/08/23 10:53:46;;;;;;;;;;;;;;;17.83;70.68;100325.31;4969995;28;2718;-82
2023/08/23 10:56:38;;;;;;;;;;;;;;;17.84;70.60;100318.78;4964789;28;2362;-84
2023/08/23 10:59:30;;;;;;;;;;;;;;;17.83;70.63;100317.16;4971763;28;2326;-82
2023/08/23 11:02:22;;;;;;;;;;;;;;;17.84;70.82;100316.88;4967756;28;2389;-82
2023/08/23 11:05:14;;;;;;;;;;;;;;;17.85;70.85;100314.94;4968278;28;2429;-82
2023/08/23 11:08:06;;;;;;;;;;;;;;;17.85;70.71;100313.06;4965076;28;2284;-82
2023/08/23 11:10:58;;;;;;;;;;;;;;;17.87;70.76;100319.03;4965658;28;2528;-82
2023/08/23 11:13:50;;;;;;;;;;;;;;;17.87;70.96;100318.22;4967738;28;2511;-82
2023/08/23 11:16:45;;;;;;;;;;;;;;;17.88;70.92;100317.97;4967392;28;2276;-80
2023/08/23 11:19:37;;;;;;;;;;;;;;;17.89;70.87;100314.13;4963724;28;2294;-78
2023/08/23 11:22:46;;;;;;;;;;;;;;;17.89;70.71;100307.88;4962872;28;2443;-81
2023/08/23 11:25:37;;;;;;;;;;;;;;;17.91;70.93;100313.84;4966750;28;2899;-82
2023/08/23 11:28:29;;;;;;;;;;;;;;;17.91;70.90;100311.97;4966922;28;2606;-77
2023/08/23 11:31:21;;;;;;;;;;;;;;;17.92;70.90;100304.59;4961317;28;2406;-79
2023/08/23 11:34:13;;;;;;;;;;;;;;;17.92;70.87;100299.16;4964980;28;2318;-81
2023/08/23 11:37:05;;;;;;;;;;;;;;;17.94;71.04;100302.41;4962970;28;2340;-79
2023/08/23 11:39:57;;;;;;;;;;;;;;;18.29;70.90;100301.50;4964855;28;2567;-79
2023/08/23 11:42:49;;;;;;;;;;;;;;;18.13;70.79;100294.47;4965600;28;2903;-78
2023/08/23 11:45:41;;;;;;;;;;;;;;;18.04;70.97;100294.22;4967908;28;2228;-80
2023/08/23 11:48:33;;;;;;;;;;;;;;;18.01;71.03;100292.06;4964538;28;2252;-80
2023/08/23 11:51:25;;;;;;;;;;;;;;;18.02;71.03;100301.03;4970987;28;2009;-81
2023/08/23 11:54:22;;;;;;;;;;;;;;;18.02;71.50;100299.13;4961630;28;2593;-77
2023/08/23 11:57:16;;;;;;;;;;;;;;;18.03;71.36;100302.66;4963070;28;2276;-80
2023/08/23 12:00:08;;;;;;;;;;;;;;;18.03;71.14;100300.78;4961471;28;2295;-78
2023/08/23 12:03:00;;;;;;;;;;;;;;;17.85;71.20;100274.09;4960666;28;2364;-78
2023/08/23 12:05:51;;;;;;;;;;;;;;;18.04;71.37;100301.59;4971090;28;2176;-77
2023/08/23 12:08:42;;;;;;;;;;;;;;;18.06;71.37;100300.22;4974877;28;2293;-79
2023/08/23 12:11:34;;;;;;;;;;;;;;;18.07;71.16;100303.75;4970765;28;2214;-79
2023/08/23 12:14:28;;;;;;;;;;;;;;;18.08;71.55;100302.66;4976023;28;2324;-76
2023/08/23 12:17:19;;;;;;;;;;;;;;;18.08;71.17;100292.56;4974880;28;2279;-77
2023/08/23 12:20:11;;;;;;;;;;;;;;;18.09;71.42;100299.69;4969125;28;2114;-76
2023/08/23 12:23:06;;;;;;;;;;;;;;;18.10;71.45;100300.50;4974374;28;2076;-79
2023/08/23 12:25:57;;;;;;;;;;;;;;;18.10;71.29;100304.03;4971858;28;1565;-78
2023/08/23 12:28:49;;;;;;;;;;;;;;;18.11;71.19;100294.75;4978518;28;2122;-77
2023/08/23 12:31:41;;;;;;;;;;;;;;;18.12;71.45;100301.03;4973076;28;1602;-79
2023/08/23 12:34:33;;;;;;;;;;;;;;;18.13;71.51;100292.56;4962430;28;2006;-80
2023/08/23 12:37:25;;;;;;;;;;;;;;;18.14;71.59;100293.38;4968804;28;2007;-79
2023/08/23 12:40:17;;;;;;;;;;;;;;;18.15;71.24;100292.31;4969294;28;1565;-80
2023/08/23 12:43:09;;;;;;;;;;;;;;;18.15;71.53;100287.66;4975492;28;1748;-77
2023/08/23 12:46:01;;;;;;;;;;;;;;;18.16;71.39;100292.00;4968988;28;2071;-76
2023/08/23 12:48:53;;;;;;;;;;;;;;;18.16;71.45;100289.28;4972181;28;1980;-75
2023/08/23 12:51:45;;;;;;;;;;;;;;;18.16;71.64;100286.56;4964355;28;2047;-77
2023/08/23 12:54:37;;;;;;;;;;;;;;;18.17;71.65;100288.19;4971493;28;2264;-76
2023/08/23 12:57:29;;;;;;;;;;;;;;;18.17;71.54;100285.47;4955604;28;2154;-76
2023/08/23 13:00:21;;;;;;;;;;;;;;;18.20;71.52;100283.28;4958820;28;2149;-77
2023/08/23 13:03:16;;;;;;;;;;;;;;;18.21;71.57;100285.75;4956064;28;2146;-77
2023/08/23 13:06:07;;;;;;;;;;;;;;;18.22;71.27;100286.56;4963468;28;2188;-75
2023/08/23 13:08:59;;;;;;;;;;;;;;;18.22;71.42;100279.19;4968503;28;2154;-79
2023/08/23 13:11:51;;;;;;;;;;;;;;;18.22;71.60;100275.66;4964091;28;3568;-77
2023/08/23 13:14:43;;;;;;;;;;;;;;;18.23;71.60;100278.09;4967111;28;1575;-81
2023/08/23 13:17:35;;;;;;;;;;;;;;;18.23;71.64;100277.28;4973165;28;2046;-80
2023/08/23 13:20:27;;;;;;;;;;;;;;;18.24;71.66;100271.56;4970829;28;2043;-79
2023/08/23 13:23:19;;;;;;;;;;;;;;;18.24;71.45;100273.47;4965210;28;2043;-78
2023/08/23 13:26:15;;;;;;;;;;;;;;;18.25;71.79;100272.38;4972665;28;1590;-82
2023/08/23 13:29:06;;;;;;;;;;;;;;;18.26;71.75;100274.00;4967610;28;1704;-77
2023/08/23 13:31:58;;;;;;;;;;;;;;;18.26;71.64;100258.44;4961300;28;2113;-81
2023/08/23 13:34:50;;;;;;;;;;;;;;;18.26;71.87;100258.44;4958590;28;2200;-80
2023/08/23 13:37:41;;;;;;;;;;;;;;;18.27;71.68;100273.75;4960056;28;2129;-77
2023/08/23 13:40:33;;;;;;;;;;;;;;;18.27;71.57;100265.56;4964559;28;2304;-80
2023/08/23 13:43:27;;;;;;;;;;;;;;;18.27;71.63;100260.09;4958882;28;2445;-79
2023/08/23 13:46:18;;;;;;;;;;;;;;;18.29;71.46;100260.63;4959832;28;2267;-77
2023/08/23 13:49:10;;;;;;;;;;;;;;;18.28;71.55;100256.28;4969482;28;2143;-79
2023/08/23 13:52:02;;;;;;;;;;;;;;;18.29;71.57;100260.63;4977015;28;2145;-80
2023/08/23 13:54:54;;;;;;;;;;;;;;;18.29;71.54;100260.63;4974189;28;1836;-81
2023/08/23 13:57:46;;;;;;;;;;;;;;;18.29;71.94;100263.34;4972210;28;2007;-80
2023/08/23 14:00:38;;;;;;;;;;;;;;;18.28;71.83;100259.00;4970180;28;2013;-80
2023/08/23 14:03:30;;;;;;;;;;;;;;;18.32;71.92;100264.72;4968589;28;2194;-79
2023/08/23 14:06:22;;;;;;;;;;;;;;;18.31;71.75;100263.91;4980267;28;1807;-77
2023/08/23 14:09:14;;;;;;;;;;;;;;;18.31;71.87;100266.63;4968656;28;1876;-78
2023/08/23 14:12:06;;;;;;;;;;;;;;;18.31;71.88;100260.34;4965731;28;2878;-80
2023/08/23 14:14:58;;;;;;;;;;;;;;;18.32;71.89;100262.81;4971317;28;1960;-79
2023/08/23 14:17:50;;;;;;;;;;;;;;;18.31;71.78;100258.44;4967711;28;2075;-77
2023/08/23 14:20:42;;;;;;;;;;;;;;;18.32;71.72;100265.56;4967284;28;1634;-82
2023/08/23 14:23:34;;;;;;;;;;;;;;;18.32;71.86;100264.72;4962961;28;1717;-83
2023/08/23 14:26:26;;;;;;;;;;;;;;;18.32;72.01;100261.97;4976949;28;2020;-79
2023/08/23 14:29:18;;;;;;;;;;;;;;;18.33;72.09;100282.72;4968990;28;1753;-85
2023/08/23 14:32:11;;;;;;;;;;;;;;;18.32;72.00;100276.44;4973892;28;1925;-85
2023/08/23 14:35:04;;;;;;;;;;;;;;;18.31;71.97;100274.81;4967162;28;1691;-89
2023/08/23 14:37:55;;;;;;;;;;;;;;;18.32;71.99;100272.88;4965207;28;1550;-83
2023/08/23 14:40:48;;;;;;;;;;;;;;;18.31;71.76;100268.53;4969354;28;1897;-81
2023/08/23 14:43:40;;;;;;;;;;;;;;;18.32;72.01;100268.28;4967173;28;2040;-81
2023/08/23 14:46:34;;;;;;;;;;;;;;;18.33;72.28;100269.09;4972857;28;1999;-78
2023/08/23 14:49:26;;;;;;;;;;;;;;;18.31;72.23;100261.16;4961387;28;1100;-79
2023/08/23 14:52:22;;;;;;;;;;;;;;;18.32;71.90;100272.88;4968409;28;2034;-80
2023/08/23 14:55:14;;;;;;;;;;;;;;;18.32;72.14;100259.25;4966863;28;2552;-78
2023/08/23 14:58:06;;;;;;;;;;;;;;;18.31;72.29;100272.06;4972352;28;2002;-77
2023/08/23 15:00:57;;;;;;;;;;;;;;;18.31;72.31;100261.16;4964475;28;1832;-82
2023/08/23 15:03:49;;;;;;;;;;;;;;;18.30;71.97;100254.09;4975271;28;1607;-77
2023/08/23 15:06:42;;;;;;;;;;;;;;;18.32;72.14;100265.56;4973704;28;2101;-82
2023/08/23 15:09:34;;;;;;;;;;;;;;;18.32;72.16;100268.28;4972320;28;2160;-78
2023/08/23 15:12:28;;;;;;;;;;;;;;;18.31;71.82;100258.44;4965020;28;2999;-81
2023/08/23 15:15:27;;;;;;;;;;;;;;;18.32;72.20;100243.75;4973064;28;2186;-78
2023/08/23 15:18:19;;;;;;;;;;;;;;;18.32;72.24;100251.91;4971791;28;1092;-83